»·PEaware :: WAT390 KEUG-KBFI

WAT390 :: KEUG-KBFI

FLIGHT INFORMATION

Flight Status: Arrived
Operator:
Walker Air Transport
More flights by this operator :: More flights under this callsign
Pilot: Ewen S. (18928)
Aircraft: SAAB 340
(SF34)
More flights by this aircraft type
Origin: KEUG Mahlon Sweet
United States
Destination: KBFI Boeing Field/King Co Intl
United States
More flights between these airports :: More routes between these airports
Route: CVO V495 UBG V165 OLM OLM2
File this flight plan on PilotEdge
Remarks:
Altitude:
(Current/Filed)
22,000ft
Speed:
(Current/Filed)
240kts
Departed: 21-Feb-21 02:33 PM
Arrived: 21-Feb-21 04:02 PM
Distance/Time
Traveled:
208nm/1:29
Distance/Time
To Go:
Arrived

Flight Plot

Page will automatically refresh every two minutes.

Flight plan parsing failed; only flown route is shown


Map Options




Map Legend


Flown Route
Filed Route
Departure Airport
Arrival Airport
Navaid (VOR, NDB)
Fix

Horizontal Profiles

Position Reports

Time Latitude Longitude Heading Altitude Ground
Speed
21-Feb-21 13:38 44.119919 -123.212921 210 372ft 0kts
21-Feb-21 13:39 44.119919 -123.212921 210 372ft 0kts
21-Feb-21 13:40 44.119919 -123.212921 210 371ft 0kts
21-Feb-21 13:41 44.119919 -123.212921 210 371ft 0kts
21-Feb-21 13:42 44.119919 -123.212921 210 371ft 0kts
21-Feb-21 13:43 44.119919 -123.212921 210 371ft 0kts
21-Feb-21 13:44 44.119919 -123.212921 210 371ft 0kts
21-Feb-21 13:45 44.119919 -123.212921 210 371ft 0kts
21-Feb-21 13:46 44.119919 -123.212921 210 371ft 0kts
21-Feb-21 13:47 44.119919 -123.212921 210 371ft 0kts
21-Feb-21 13:48 44.119919 -123.212921 210 371ft 0kts
21-Feb-21 13:49 44.119919 -123.212921 210 371ft 0kts
21-Feb-21 13:50 44.119919 -123.212921 210 371ft 0kts
21-Feb-21 13:51 44.119919 -123.212921 210 371ft 0kts
21-Feb-21 13:52 44.119919 -123.212921 210 371ft 0kts
21-Feb-21 13:53 44.119919 -123.212921 210 371ft 0kts
21-Feb-21 13:54 44.119919 -123.212921 210 371ft 0kts
21-Feb-21 13:55 44.119919 -123.212921 210 371ft 0kts
21-Feb-21 13:56 44.119919 -123.212921 210 371ft 0kts
21-Feb-21 13:57 44.119919 -123.212921 210 371ft 0kts
21-Feb-21 13:58 44.119919 -123.212921 210 371ft 0kts
21-Feb-21 13:59 44.119919 -123.212921 210 371ft 0kts
21-Feb-21 14:00 44.119919 -123.212921 210 371ft 0kts
21-Feb-21 14:01 44.119919 -123.212921 210 371ft 0kts
21-Feb-21 14:02 44.119919 -123.212921 210 371ft 0kts
21-Feb-21 14:03 44.119919 -123.212921 210 371ft 0kts
21-Feb-21 14:04 44.119919 -123.212921 210 371ft 0kts
21-Feb-21 14:05 44.119919 -123.212921 210 371ft 0kts
21-Feb-21 14:06 44.119919 -123.212921 210 371ft 0kts
21-Feb-21 14:07 44.119919 -123.212922 210 372ft 0kts
21-Feb-21 14:08 44.119919 -123.212922 210 372ft 0kts
21-Feb-21 14:09 44.119919 -123.212922 210 372ft 0kts
21-Feb-21 14:10 44.119885 -123.212950 210 372ft 0kts
21-Feb-21 14:11 44.119885 -123.212950 210 372ft 0kts
21-Feb-21 14:12 44.119885 -123.212950 210 372ft 0kts
21-Feb-21 14:13 44.119858 -123.212971 210 372ft 0kts
21-Feb-21 14:14 44.119843 -123.212983 210 372ft 0kts
21-Feb-21 14:15 44.119843 -123.212983 210 372ft 0kts
21-Feb-21 14:16 44.119791 -123.213026 210 372ft 0kts
21-Feb-21 14:17 44.119789 -123.213028 210 372ft 0kts
21-Feb-21 14:18 44.119784 -123.213032 210 372ft 0kts
21-Feb-21 14:19 44.120107 -123.212742 261 371ft 0kts
21-Feb-21 14:20 44.120104 -123.212644 194 371ft 0kts
21-Feb-21 14:21 44.120153 -123.212628 210 371ft 0kts
21-Feb-21 14:22 44.120127 -123.212649 210 371ft 0kts
21-Feb-21 14:23 44.120104 -123.212667 210 371ft 0kts
21-Feb-21 14:24 44.120080 -123.212873 304 371ft 0kts
21-Feb-21 14:25 44.120082 -123.212877 305 371ft 0kts
21-Feb-21 14:26 44.120682 -123.214107 296 371ft 7kts
21-Feb-21 14:27 44.121282 -123.216979 346 371ft 11kts
21-Feb-21 14:28 44.125152 -123.217059 359 368ft 15kts
21-Feb-21 14:29 44.129690 -123.217111 358 366ft 15kts
21-Feb-21 14:30 44.133430 -123.217176 358 364ft 15kts
21-Feb-21 14:31 44.135332 -123.217813 275 364ft 10kts
21-Feb-21 14:32 44.130851 -123.219073 178 366ft 81kts
21-Feb-21 14:33 44.096472 -123.220634 183 1650ft 144kts
21-Feb-21 14:34 44.054580 -123.226695 179 3588ft 166kts
21-Feb-21 14:35 44.006764 -123.218875 172 5574ft 181kts
21-Feb-21 14:36 44.008068 -123.162679 35 7511ft 188kts
21-Feb-21 14:37 44.050103 -123.137371 333 9543ft 166kts
21-Feb-21 14:38 44.093355 -123.155631 337 11688ft 160kts
21-Feb-21 14:39 44.136725 -123.170988 338 13639ft 162kts
21-Feb-21 14:40 44.180531 -123.185880 339 15488ft 163kts
21-Feb-21 14:41 44.225108 -123.200903 339 17097ft 165kts
21-Feb-21 14:42 44.270147 -123.216060 339 18487ft 168kts
21-Feb-21 14:43 44.316313 -123.231629 339 19455ft 170kts
21-Feb-21 14:44 44.363856 -123.247759 340 20415ft 177kts
21-Feb-21 14:45 44.413320 -123.264500 340 21096ft 189kts
21-Feb-21 14:46 44.465197 -123.282071 340 21785ft 192kts
21-Feb-21 14:47 44.519327 -123.286432 4 22374ft 208kts
21-Feb-21 14:48 44.577246 -123.265457 5 22559ft 222kts
21-Feb-21 14:49 44.638734 -123.242989 5 22554ft 231kts
21-Feb-21 14:50 44.701478 -123.219999 5 22562ft 234kts
21-Feb-21 14:51 44.764624 -123.196798 5 22559ft 234kts
21-Feb-21 14:52 44.827604 -123.173640 5 22549ft 235kts
21-Feb-21 14:53 44.890897 -123.150304 5 22553ft 234kts
21-Feb-21 14:54 44.954005 -123.126985 5 22553ft 233kts
21-Feb-21 14:55 45.016808 -123.103724 5 22545ft 233kts
21-Feb-21 14:56 45.079947 -123.080294 5 22533ft 233kts
21-Feb-21 14:57 45.142875 -123.056877 5 22529ft 235kts
21-Feb-21 14:58 45.206638 -123.033100 5 22526ft 236kts
21-Feb-21 14:59 45.270279 -123.009058 5 22524ft 237kts
21-Feb-21 15:00 45.334083 -122.984721 5 22522ft 237kts
21-Feb-21 15:01 45.395643 -122.978093 329 22524ft 214kts
21-Feb-21 15:03 45.456574 -122.991096 347 22519ft 224kts
21-Feb-21 15:04 45.518806 -122.998936 347 22505ft 224kts
21-Feb-21 15:05 45.581075 -123.006750 347 22490ft 224kts
21-Feb-21 15:06 45.643482 -123.014597 347 22482ft 224kts
21-Feb-21 15:07 45.705503 -123.022396 346 22481ft 224kts
21-Feb-21 15:08 45.767743 -123.030251 346 22480ft 224kts
21-Feb-21 15:09 45.830101 -123.038121 346 22477ft 225kts
21-Feb-21 15:10 45.892799 -123.046049 346 22474ft 224kts
21-Feb-21 15:11 45.954957 -123.053913 346 22479ft 224kts
21-Feb-21 15:12 46.017125 -123.061765 345 22479ft 224kts
21-Feb-21 15:13 46.079646 -123.069828 345 22477ft 224kts
21-Feb-21 15:14 46.142163 -123.077746 345 22471ft 225kts
21-Feb-21 15:15 46.205001 -123.085767 345 22463ft 226kts
21-Feb-21 15:16 46.268079 -123.093816 345 22455ft 226kts
21-Feb-21 15:17 46.330994 -123.101970 345 22419ft 228kts
21-Feb-21 15:18 46.399372 -123.110855 346 21114ft 257kts
21-Feb-21 15:18 46.461029 -123.095412 2 19922ft 264kts
21-Feb-21 15:20 46.539852 -123.066440 1 18191ft 239kts
21-Feb-21 15:21 46.603777 -123.042349 2 16717ft 235kts
21-Feb-21 15:22 46.668246 -123.017920 3 15237ft 238kts
21-Feb-21 15:22 46.722496 -122.997258 3 14014ft 241kts
21-Feb-21 15:24 46.799471 -122.967927 4 12289ft 246kts
21-Feb-21 15:25 46.867902 -122.941756 5 12018ft 261kts
21-Feb-21 15:25 46.927086 -122.919035 5 12004ft 263kts
21-Feb-21 15:26 46.994061 -122.874153 32 12001ft 285kts
21-Feb-21 15:28 47.063433 -122.785095 32 11999ft 285kts
21-Feb-21 15:28 47.112772 -122.721931 32 12002ft 279kts
21-Feb-21 15:29 47.169596 -122.649218 32 12004ft 284kts
21-Feb-21 15:30 47.229378 -122.605092 356 11609ft 263kts
21-Feb-21 15:31 47.310904 -122.597212 355 10033ft 250kts
21-Feb-21 15:32 47.376838 -122.592658 355 8515ft 230kts
21-Feb-21 15:33 47.440516 -122.589127 355 7006ft 227kts
21-Feb-21 15:34 47.504192 -122.586002 355 5994ft 208kts
21-Feb-21 15:35 47.560963 -122.582674 355 5999ft 198kts
21-Feb-21 15:36 47.615691 -122.579890 346 5992ft 190kts
21-Feb-21 15:37 47.671912 -122.591157 345 4723ft 211kts
21-Feb-21 15:38 47.731143 -122.604894 345 3451ft 219kts
21-Feb-21 15:39 47.789647 -122.619299 345 3004ft 204kts
21-Feb-21 15:40 47.845119 -122.632874 345 2998ft 198kts
21-Feb-21 15:41 47.901021 -122.646770 345 3002ft 208kts
21-Feb-21 15:42 47.959161 -122.661529 345 2992ft 213kts
21-Feb-21 15:43 48.017701 -122.676969 345 2980ft 207kts
21-Feb-21 15:44 48.065636 -122.702274 281 2982ft 163kts
21-Feb-21 15:45 48.038107 -122.716328 155 2985ft 149kts
21-Feb-21 15:46 48.002207 -122.685419 155 2984ft 148kts
21-Feb-21 15:47 47.966737 -122.654175 155 2987ft 147kts
21-Feb-21 15:48 47.931433 -122.622850 155 2991ft 147kts
21-Feb-21 15:49 47.896386 -122.591075 155 2994ft 147kts
21-Feb-21 15:50 47.860922 -122.558913 156 3009ft 162kts
21-Feb-21 15:51 47.814892 -122.532370 165 3010ft 188kts
21-Feb-21 15:52 47.771541 -122.505377 160 2999ft 147kts
21-Feb-21 15:53 47.736350 -122.477371 157 3003ft 142kts
21-Feb-21 15:54 47.699935 -122.446765 156 3008ft 163kts
21-Feb-21 15:55 47.660842 -122.413479 156 2723ft 152kts
21-Feb-21 15:56 47.625887 -122.383734 156 1971ft 139kts
21-Feb-21 15:57 47.593431 -122.356288 152 1242ft 131kts
21-Feb-21 15:58 47.563373 -122.330710 155 559ft 114kts
21-Feb-21 15:59 47.539193 -122.310304 155 52ft 93kts
21-Feb-21 16:00 47.526365 -122.299563 149 23ft 42kts
21-Feb-21 16:01 47.522288 -122.297482 206 23ft 0kts
21-Feb-21 16:02 47.522092 -122.297478 167 23ft 8kts

Navigation Log

Ident Type
Flight plan parsing failed, navigation log unavailable